Collegeville, Minnesota
Current Conditions -  °F | °C
As of 4:53 AM on Wednesday 22 Oct 2014 (Local Time) from KSTC Reporting Station
Clear Clear  
Wind Chill: 41°   Ceiling: Unl
Heat Index: 45°   Visibility: 10mi
Dew Point: 37°   Wind: 8mph
Humidity: 74%   Direction: 140°SE
Pressure: 30.14"   Gusts: NA
Location:  45.59°N, 94.36°W
Report Text: KSTC 220953Z AUTO 14007KT 10SM CLR 07/03 A3014 RMK AO2 SLP219 T00720028
Loading
Personal Weather Stations






























Interactive Weather Map
Tropical Storm Tracking
New forecast layout! Learn more

10-Day Weather Forecast

Advertisements
Track Severe Weather on mobile